Stephen Scott — WCW8842 — position and weather

sailwx.info

Track history (hours):
 
Tides and Currents Weather Stations Pressure Air Temp Water Temp Dewpoint Dewpoint Depression Visibility Wind Speed Wind Dir Waves Ship Positions

Stephen Scott

Owner: H A REINAUER INC, STATEN ISLAND, NY. More information available from US FCC via Universal Licensing System and Coast Guard Vessel Documentation Center.

Last reported at 2015-Mar-04 23:33 UTC. Time now 2015-Mar-05 00:22 UTC.
Position N 41°05' W 073°06'.

Length 30 m; draft 2.5 m.

Type: Towing. MMSI: 366245490.

Date/timePositionNaut miles runAvg speedWind from/ knotsBaromVisibWave heightAir tempDewpointWater temp
2015-Mar-04 23:33N 41°05' W 073°06'9 9.1
2015-Mar-04 22:34N 41°11' W 072°57'7 6.4
2015-Mar-04 21:31N 41°17' W 072°54'0 0.0
2015-Mar-04 20:25N 41°17' W 072°54'0 0.0
2015-Mar-04 19:13N 41°17' W 072°54'0 0.0
2015-Mar-04 18:31N 41°17' W 072°54'0 0.3
2015-Mar-04 17:29N 41°17' W 072°55'1 0.1
2015-Mar-04 09:33N 41°18' W 072°54'2 1.7
2015-Mar-04 08:33N 41°16' W 072°55'5 5.4
2015-Mar-04 07:33N 41°11' W 072°57'8 8.0
2015-Mar-04 06:34N 41°06' W 073°05'41 7.9
2015-Mar-04 01:24N 40°48' W 073°54'5 5.7
2015-Mar-04 00:33N 40°45' W 073°58'4 4.3
2015-Mar-03 23:33N 40°41' W 074°01'6 5.6
2015-Mar-03 22:30N 40°39' W 074°08'8 0.4
2015-Mar-03 03:10N 40°32' W 074°15'5 0.9
2015-Mar-02 21:09N 40°37' W 074°12'5 7.9
2015-Mar-02 20:32N 40°39' W 074°06'3 2.8
2015-Mar-02 19:30N 40°39' W 074°03'0 0.0
2015-Mar-02 18:30N 40°39' W 074°03'0 0.0
2015-Mar-02 17:30N 40°39' W 074°03'0 0.0
2015-Mar-02 16:33N 40°39' W 074°03'0 0.0
2015-Mar-02 15:30N 40°39' W 074°03'0 0.0
2015-Mar-02 14:30N 40°39' W 074°03'0 0.0
2015-Mar-02 13:30N 40°39' W 074°03'0 0.1
2015-Mar-02 12:30N 40°40' W 074°03'0 0.0
2015-Mar-02 11:30N 40°40' W 074°03'0 0.0
2015-Mar-02 10:30N 40°40' W 074°03'0 0.0
2015-Mar-02 09:30N 40°40' W 074°03'0 0.0
2015-Mar-02 08:30N 40°40' W 074°03'4 4.2
2015-Mar-02 07:32N 40°38' W 074°08'0 0.0
2015-Mar-02 06:32N 40°38' W 074°08'5 5.1
2015-Mar-02 05:33N 40°40' W 074°02'1 1.2
2015-Mar-02 04:32N 40°39' W 074°03'0 0.0
2015-Mar-02 03:32N 40°39' W 074°03'0 0.1
2015-Mar-02 02:33N 40°40' W 074°03'10 9.2
2015-Mar-02 01:26N 40°48' W 073°55'39 9.4
2015-Mar-01 21:15N 41°05' W 073°08'710.0
2015-Mar-01 20:33N 41°09' W 073°00'8 8.5
2015-Mar-01 19:33N 41°16' W 072°55'1 0.2
2015-Mar-01 14:12N 41°17' W 072°54'0 0.0
2015-Mar-01 10:26N 41°17' W 072°54'0 0.0
2015-Mar-01 09:32N 41°17' W 072°54'0 0.0
2015-Mar-01 08:32N 41°17' W 072°54'0 0.0
2015-Mar-01 07:32N 41°17' W 072°54'2 1.7
2015-Mar-01 06:33N 41°16' W 072°55'6 6.3
2015-Mar-01 05:33N 41°10' W 072°58'8 8.2
2015-Mar-01 04:33N 41°05' W 073°07'10 8.6
2015-Mar-01 03:25N 41°02' W 073°19'7 8.4
2015-Mar-01 02:33N 40°59' W 073°28'8 7.9
2015-Mar-01 01:32N 40°55' W 073°37'8 7.6
2015-Mar-01 00:32N 40°51' W 073°45'9 6.5
2015-Feb-28 23:07N 40°47' W 073°56'3 6.0
2015-Feb-28 22:33N 40°44' W 073°58'5 4.7
2015-Feb-28 21:31N 40°40' W 074°03'1 0.8
2015-Feb-28 20:20N 40°39' W 074°03'6 6.1
2015-Feb-28 19:16N 40°38' W 074°12'7 1.3
2015-Feb-28 14:13N 40°32' W 074°15'0 0.0
2015-Feb-28 01:10N 40°33' W 074°15'0 0.2
2015-Feb-27 22:05N 40°32' W 074°15'4 2.5
2015-Feb-27 20:19N 40°36' W 074°12'5 7.0
2015-Feb-27 19:32N 40°39' W 074°06'3 2.7
2015-Feb-27 18:32N 40°39' W 074°03'0 0.0
2015-Feb-27 17:32N 40°39' W 074°03'2 1.9
2015-Feb-27 16:29N 40°39' W 074°05'2 2.0
2015-Feb-27 15:31N 40°39' W 074°03'0 0.0
2015-Feb-27 14:31N 40°39' W 074°03'0 0.0
2015-Feb-27 13:31N 40°39' W 074°03'0 0.0
2015-Feb-27 12:31N 40°39' W 074°03'0 0.0
2015-Feb-27 11:31N 40°39' W 074°03'2 1.6
2015-Feb-27 10:28N 40°40' W 074°01'2 1.7
2015-Feb-27 09:32N 40°39' W 074°03'5 4.8
2015-Feb-27 08:33N 40°43' W 073°58'6 2.8
2015-Feb-27 06:21N 40°48' W 073°54'0 0.0
2015-Feb-27 05:27N 40°48' W 073°54'7 7.6
2015-Feb-27 04:33N 40°42' W 073°59'7 6.5
2015-Feb-27 03:27N 40°39' W 074°07'5 5.5
2015-Feb-27 02:33N 40°40' W 074°01'8 6.9
2015-Feb-27 01:21N 40°38' W 074°12'2 1.7
2015-Feb-27 00:09N 40°36' W 074°12'3 4.7
2015-Feb-26 23:26N 40°39' W 074°09'8 9.2
2015-Feb-26 22:33N 40°42' W 073°60'11 5.1
2015-Feb-26 20:19N 40°48' W 073°47'1 0.6
2015-Feb-26 19:28N 40°49' W 073°47'0 0.0
2015-Feb-26 18:10N 40°49' W 073°47'0 0.0
2015-Feb-26 14:28N 40°49' W 073°47'0 0.0
2015-Feb-26 13:24N 40°49' W 073°47'0 0.0
2015-Feb-26 12:30N 40°49' W 073°47'1 0.5
2015-Feb-26 11:33N 40°48' W 073°47'6 5.1
2015-Feb-26 10:28N 40°48' W 073°54'0 0.1
2015-Feb-26 09:27N 40°48' W 073°54'7 6.6
2015-Feb-26 08:22N 40°42' W 073°60'3 3.7
2015-Feb-26 07:29N 40°40' W 074°03'0 0.0
2015-Feb-26 06:26N 40°40' W 074°03'0 0.1
2015-Feb-26 05:26N 40°40' W 074°03'4 3.4
2015-Feb-26 04:21N 40°39' W 074°07'0 0.1
2015-Feb-26 01:13N 40°38' W 074°08'1 1.6
2015-Feb-26 00:30N 40°39' W 074°06'3 2.7
2015-Feb-25 23:33N 40°40' W 074°03'2 1.6
2015-Feb-25 22:29N 40°40' W 074°01'1 0.9
2015-Feb-25 21:33N 40°40' W 074°02'1 0.8
2015-Feb-25 20:26N 40°40' W 074°01'0 0.0
2015-Feb-25 19:26N 40°40' W 074°01'0 0.0
2015-Feb-25 18:29N 40°40' W 074°01'0 0.0
2015-Feb-25 17:32N 40°40' W 074°01'0 0.0
2015-Feb-25 16:11N 40°40' W 074°01'0 0.0
2015-Feb-25 15:17N 40°40' W 074°01'0 0.0
2015-Feb-25 14:29N 40°40' W 074°01'0 0.0
2015-Feb-25 13:32N 40°40' W 074°01'2 1.2
2015-Feb-25 11:29N 40°39' W 074°04'4 4.3
2015-Feb-25 10:33N 40°42' W 074°00'8 7.3
2015-Feb-25 09:30N 40°48' W 073°54'0 0.0
2015-Feb-25 08:33N 40°48' W 073°54'0 0.0
2015-Feb-25 07:27N 40°48' W 073°54'1 0.7
2015-Feb-25 06:32N 40°48' W 073°55'9 8.7
2015-Feb-25 05:33N 40°41' W 074°01'0 0.4
2015-Feb-25 04:28N 40°40' W 074°01'0 0.0
2015-Feb-25 03:28N 40°40' W 074°01'0 0.0
2015-Feb-25 02:28N 40°40' W 074°01'0 0.0
2015-Feb-25 01:28N 40°40' W 074°01'0 0.0
2015-Feb-25 00:28N 40°40' W 074°01'1 0.6
2015-Feb-24 23:33N 40°40' W 074°02'1 0.5
2015-Feb-24 22:33N 40°40' W 074°01'0 0.0
2015-Feb-24 21:30N 40°40' W 074°01'4 4.6
2015-Feb-24 20:33N 40°44' W 073°58'5 4.8
2015-Feb-24 19:32N 40°48' W 073°54'6 6.5
2015-Feb-24 18:33N 40°42' W 073°59'7 6.5
2015-Feb-24 17:32N 40°39' W 074°06'3 3.2
2015-Feb-24 16:34N 40°40' W 074°02'1 1.0
2015-Feb-24 15:29N 40°40' W 074°01'0 0.0
2015-Feb-24 14:29N 40°40' W 074°01'0 0.0
2015-Feb-24 13:32N 40°40' W 074°01'1 1.0
2015-Feb-24 12:19N 40°40' W 074°03'1 2.0
2015-Feb-24 11:33N 40°41' W 074°01'53 7.6
2015-Feb-24 04:33N 41°09' W 073°01'8 8.4
2015-Feb-24 03:33N 41°16' W 072°55'1 1.4
2015-Feb-24 02:31N 41°17' W 072°54'0 0.0
2015-Feb-24 01:31N 41°17' W 072°54'0 0.1
2015-Feb-24 00:33N 41°17' W 072°55'0 0.1
2015-Feb-23 23:23N 41°17' W 072°54'0 0.0
2015-Feb-23 22:05N 41°17' W 072°54'0 0.0
2015-Feb-23 21:32N 41°17' W 072°54'0 0.0
2015-Feb-23 20:32N 41°17' W 072°54'0 0.0
2015-Feb-23 19:14N 41°17' W 072°54'0 0.0
2015-Feb-23 18:08N 41°17' W 072°54'0 0.0
2015-Feb-23 17:29N 41°17' W 072°54'0 0.0
2015-Feb-23 16:08N 41°17' W 072°54'0 0.0
2015-Feb-23 15:17N 41°17' W 072°54'0 0.0
2015-Feb-23 14:29N 41°17' W 072°54'1 1.2
2015-Feb-23 13:33N 41°16' W 072°55'6 6.0
2015-Feb-23 12:33N 41°10' W 072°57'8 8.5
2015-Feb-23 11:33N 41°05' W 073°06'9 9.0
2015-Feb-23 10:33N 41°02' W 073°17'9 8.7
2015-Feb-23 09:29N 40°59' W 073°29'8 7.9
2015-Feb-23 08:26N 40°55' W 073°39'7 7.6
2015-Feb-23 07:32N 40°51' W 073°46'6 5.8
2015-Feb-23 06:30N 40°48' W 073°53'5 5.8
2015-Feb-23 05:33N 40°45' W 073°58'5 5.4
2015-Feb-23 04:33N 40°40' W 074°03'4 3.7
2015-Feb-23 03:32N 40°39' W 074°07'1 0.6
2015-Feb-23 02:33N 40°38' W 074°08'0 0.0
2015-Feb-23 01:33N 40°38' W 074°08'0 0.0
2015-Feb-23 00:33N 40°38' W 074°08'0 0.0
2015-Feb-22 23:33N 40°38' W 074°08'  
Track history (hours):
 
Tides and Currents Weather Stations Pressure Air Temp Water Temp Dewpoint Dewpoint Depression Visibility Wind Speed Wind Dir Waves Ship Positions

Stephen Scott

Owner: H A REINAUER INC, STATEN ISLAND, NY. More information available from US FCC via Universal Licensing System and Coast Guard Vessel Documentation Center.

Last reported at 2015-Mar-04 23:33 UTC. Time now 2015-Mar-05 00:22 UTC.
Position N 41°05' W 073°06'.

Length 30 m; draft 2.5 m.

Type: Towing. MMSI: 366245490.

Date/timePositionNaut miles runAvg speedWind from/ knotsBaromVisibWave heightAir tempDewpointWater temp
2015-Mar-04 23:33N 41°05' W 073°06'9 9.1
2015-Mar-04 22:34N 41°11' W 072°57'7 6.4
2015-Mar-04 21:31N 41°17' W 072°54'0 0.0
2015-Mar-04 20:25N 41°17' W 072°54'0 0.0
2015-Mar-04 19:13N 41°17' W 072°54'0 0.0
2015-Mar-04 18:31N 41°17' W 072°54'0 0.3
2015-Mar-04 17:29N 41°17' W 072°55'1 0.1
2015-Mar-04 09:33N 41°18' W 072°54'2 1.7
2015-Mar-04 08:33N 41°16' W 072°55'5 5.4
2015-Mar-04 07:33N 41°11' W 072°57'8 8.0
2015-Mar-04 06:34N 41°06' W 073°05'41 7.9
2015-Mar-04 01:24N 40°48' W 073°54'5 5.7
2015-Mar-04 00:33N 40°45' W 073°58'4 4.3
2015-Mar-03 23:33N 40°41' W 074°01'6 5.6
2015-Mar-03 22:30N 40°39' W 074°08'8 0.4
2015-Mar-03 03:10N 40°32' W 074°15'5 0.9
2015-Mar-02 21:09N 40°37' W 074°12'5 7.9
2015-Mar-02 20:32N 40°39' W 074°06'3 2.8
2015-Mar-02 19:30N 40°39' W 074°03'0 0.0
2015-Mar-02 18:30N 40°39' W 074°03'0 0.0
2015-Mar-02 17:30N 40°39' W 074°03'0 0.0
2015-Mar-02 16:33N 40°39' W 074°03'0 0.0
2015-Mar-02 15:30N 40°39' W 074°03'0 0.0
2015-Mar-02 14:30N 40°39' W 074°03'0 0.0
2015-Mar-02 13:30N 40°39' W 074°03'0 0.1
2015-Mar-02 12:30N 40°40' W 074°03'0 0.0
2015-Mar-02 11:30N 40°40' W 074°03'0 0.0
2015-Mar-02 10:30N 40°40' W 074°03'0 0.0
2015-Mar-02 09:30N 40°40' W 074°03'0 0.0
2015-Mar-02 08:30N 40°40' W 074°03'4 4.2
2015-Mar-02 07:32N 40°38' W 074°08'0 0.0
2015-Mar-02 06:32N 40°38' W 074°08'5 5.1
2015-Mar-02 05:33N 40°40' W 074°02'1 1.2
2015-Mar-02 04:32N 40°39' W 074°03'0 0.0
2015-Mar-02 03:32N 40°39' W 074°03'0 0.1
2015-Mar-02 02:33N 40°40' W 074°03'10 9.2
2015-Mar-02 01:26N 40°48' W 073°55'39 9.4
2015-Mar-01 21:15N 41°05' W 073°08'710.0
2015-Mar-01 20:33N 41°09' W 073°00'8 8.5
2015-Mar-01 19:33N 41°16' W 072°55'1 0.2
2015-Mar-01 14:12N 41°17' W 072°54'0 0.0
2015-Mar-01 10:26N 41°17' W 072°54'0 0.0
2015-Mar-01 09:32N 41°17' W 072°54'0 0.0
2015-Mar-01 08:32N 41°17' W 072°54'0 0.0
2015-Mar-01 07:32N 41°17' W 072°54'2 1.7
2015-Mar-01 06:33N 41°16' W 072°55'6 6.3
2015-Mar-01 05:33N 41°10' W 072°58'8 8.2
2015-Mar-01 04:33N 41°05' W 073°07'10 8.6
2015-Mar-01 03:25N 41°02' W 073°19'7 8.4
2015-Mar-01 02:33N 40°59' W 073°28'8 7.9
2015-Mar-01 01:32N 40°55' W 073°37'8 7.6
2015-Mar-01 00:32N 40°51' W 073°45'9 6.5
2015-Feb-28 23:07N 40°47' W 073°56'3 6.0
2015-Feb-28 22:33N 40°44' W 073°58'5 4.7
2015-Feb-28 21:31N 40°40' W 074°03'1 0.8
2015-Feb-28 20:20N 40°39' W 074°03'6 6.1
2015-Feb-28 19:16N 40°38' W 074°12'7 1.3
2015-Feb-28 14:13N 40°32' W 074°15'0 0.0
2015-Feb-28 01:10N 40°33' W 074°15'0 0.2
2015-Feb-27 22:05N 40°32' W 074°15'4 2.5
2015-Feb-27 20:19N 40°36' W 074°12'5 7.0
2015-Feb-27 19:32N 40°39' W 074°06'3 2.7
2015-Feb-27 18:32N 40°39' W 074°03'0 0.0
2015-Feb-27 17:32N 40°39' W 074°03'2 1.9
2015-Feb-27 16:29N 40°39' W 074°05'2 2.0
2015-Feb-27 15:31N 40°39' W 074°03'0 0.0
2015-Feb-27 14:31N 40°39' W 074°03'0 0.0
2015-Feb-27 13:31N 40°39' W 074°03'0 0.0
2015-Feb-27 12:31N 40°39' W 074°03'0 0.0
2015-Feb-27 11:31N 40°39' W 074°03'2 1.6
2015-Feb-27 10:28N 40°40' W 074°01'2 1.7
2015-Feb-27 09:32N 40°39' W 074°03'5 4.8
2015-Feb-27 08:33N 40°43' W 073°58'6 2.8
2015-Feb-27 06:21N 40°48' W 073°54'0 0.0
2015-Feb-27 05:27N 40°48' W 073°54'7 7.6
2015-Feb-27 04:33N 40°42' W 073°59'7 6.5
2015-Feb-27 03:27N 40°39' W 074°07'5 5.5
2015-Feb-27 02:33N 40°40' W 074°01'8 6.9
2015-Feb-27 01:21N 40°38' W 074°12'2 1.7
2015-Feb-27 00:09N 40°36' W 074°12'3 4.7
2015-Feb-26 23:26N 40°39' W 074°09'8 9.2
2015-Feb-26 22:33N 40°42' W 073°60'11 5.1
2015-Feb-26 20:19N 40°48' W 073°47'1 0.6
2015-Feb-26 19:28N 40°49' W 073°47'0 0.0
2015-Feb-26 18:10N 40°49' W 073°47'0 0.0
2015-Feb-26 14:28N 40°49' W 073°47'0 0.0
2015-Feb-26 13:24N 40°49' W 073°47'0 0.0
2015-Feb-26 12:30N 40°49' W 073°47'1 0.5
2015-Feb-26 11:33N 40°48' W 073°47'6 5.1
2015-Feb-26 10:28N 40°48' W 073°54'0 0.1
2015-Feb-26 09:27N 40°48' W 073°54'7 6.6
2015-Feb-26 08:22N 40°42' W 073°60'3 3.7
2015-Feb-26 07:29N 40°40' W 074°03'0 0.0
2015-Feb-26 06:26N 40°40' W 074°03'0 0.1
2015-Feb-26 05:26N 40°40' W 074°03'4 3.4
2015-Feb-26 04:21N 40°39' W 074°07'0 0.1
2015-Feb-26 01:13N 40°38' W 074°08'1 1.6
2015-Feb-26 00:30N 40°39' W 074°06'3 2.7
2015-Feb-25 23:33N 40°40' W 074°03'2 1.6
2015-Feb-25 22:29N 40°40' W 074°01'1 0.9
2015-Feb-25 21:33N 40°40' W 074°02'1 0.8
2015-Feb-25 20:26N 40°40' W 074°01'0 0.0
2015-Feb-25 19:26N 40°40' W 074°01'0 0.0
2015-Feb-25 18:29N 40°40' W 074°01'0 0.0
2015-Feb-25 17:32N 40°40' W 074°01'0 0.0
2015-Feb-25 16:11N 40°40' W 074°01'0 0.0
2015-Feb-25 15:17N 40°40' W 074°01'0 0.0
2015-Feb-25 14:29N 40°40' W 074°01'0 0.0
2015-Feb-25 13:32N 40°40' W 074°01'2 1.2
2015-Feb-25 11:29N 40°39' W 074°04'4 4.3
2015-Feb-25 10:33N 40°42' W 074°00'8 7.3
2015-Feb-25 09:30N 40°48' W 073°54'0 0.0
2015-Feb-25 08:33N 40°48' W 073°54'0 0.0
2015-Feb-25 07:27N 40°48' W 073°54'1 0.7
2015-Feb-25 06:32N 40°48' W 073°55'9 8.7
2015-Feb-25 05:33N 40°41' W 074°01'0 0.4
2015-Feb-25 04:28N 40°40' W 074°01'0 0.0
2015-Feb-25 03:28N 40°40' W 074°01'0 0.0
2015-Feb-25 02:28N 40°40' W 074°01'0 0.0
2015-Feb-25 01:28N 40°40' W 074°01'0 0.0
2015-Feb-25 00:28N 40°40' W 074°01'1 0.6
2015-Feb-24 23:33N 40°40' W 074°02'1 0.5
2015-Feb-24 22:33N 40°40' W 074°01'0 0.0
2015-Feb-24 21:30N 40°40' W 074°01'4 4.6
2015-Feb-24 20:33N 40°44' W 073°58'5 4.8
2015-Feb-24 19:32N 40°48' W 073°54'6 6.5
2015-Feb-24 18:33N 40°42' W 073°59'7 6.5
2015-Feb-24 17:32N 40°39' W 074°06'3 3.2
2015-Feb-24 16:34N 40°40' W 074°02'1 1.0
2015-Feb-24 15:29N 40°40' W 074°01'0 0.0
2015-Feb-24 14:29N 40°40' W 074°01'0 0.0
2015-Feb-24 13:32N 40°40' W 074°01'1 1.0
2015-Feb-24 12:19N 40°40' W 074°03'1 2.0
2015-Feb-24 11:33N 40°41' W 074°01'53 7.6
2015-Feb-24 04:33N 41°09' W 073°01'8 8.4
2015-Feb-24 03:33N 41°16' W 072°55'1 1.4
2015-Feb-24 02:31N 41°17' W 072°54'0 0.0
2015-Feb-24 01:31N 41°17' W 072°54'0 0.1
2015-Feb-24 00:33N 41°17' W 072°55'0 0.1
2015-Feb-23 23:23N 41°17' W 072°54'0 0.0
2015-Feb-23 22:05N 41°17' W 072°54'0 0.0
2015-Feb-23 21:32N 41°17' W 072°54'0 0.0
2015-Feb-23 20:32N 41°17' W 072°54'0 0.0
2015-Feb-23 19:14N 41°17' W 072°54'0 0.0
2015-Feb-23 18:08N 41°17' W 072°54'0 0.0
2015-Feb-23 17:29N 41°17' W 072°54'0 0.0
2015-Feb-23 16:08N 41°17' W 072°54'0 0.0
2015-Feb-23 15:17N 41°17' W 072°54'0 0.0
2015-Feb-23 14:29N 41°17' W 072°54'1 1.2
2015-Feb-23 13:33N 41°16' W 072°55'6 6.0
2015-Feb-23 12:33N 41°10' W 072°57'8 8.5
2015-Feb-23 11:33N 41°05' W 073°06'9 9.0
2015-Feb-23 10:33N 41°02' W 073°17'9 8.7
2015-Feb-23 09:29N 40°59' W 073°29'8 7.9
2015-Feb-23 08:26N 40°55' W 073°39'7 7.6
2015-Feb-23 07:32N 40°51' W 073°46'6 5.8
2015-Feb-23 06:30N 40°48' W 073°53'5 5.8
2015-Feb-23 05:33N 40°45' W 073°58'5 5.4
2015-Feb-23 04:33N 40°40' W 074°03'4 3.7
2015-Feb-23 03:32N 40°39' W 074°07'1 0.6
2015-Feb-23 02:33N 40°38' W 074°08'0 0.0
2015-Feb-23 01:33N 40°38' W 074°08'0 0.0
2015-Feb-23 00:33N 40°38' W 074°08'0 0.0
2015-Feb-22 23:33N 40°38' W 074°08'  

Dump ship's entire track history